createdAt,value
2019-04-07T00:00:19.826Z,0.00
2019-04-07T00:01:19.407Z,0.00
2019-04-07T00:02:19.900Z,0.00
2019-04-07T00:03:19.588Z,0.00
2019-04-07T00:04:19.235Z,0.00
2019-04-07T00:05:19.604Z,0.00
2019-04-07T00:06:20.392Z,0.00
2019-04-07T00:07:19.595Z,0.00
2019-04-07T00:08:19.200Z,0.00
2019-04-07T00:09:20.438Z,0.00
2019-04-07T00:10:19.220Z,0.00
2019-04-07T00:11:19.554Z,0.00
2019-04-07T00:12:19.243Z,0.00
2019-04-07T00:13:19.413Z,0.00
2019-04-07T00:14:19.133Z,0.00
2019-04-07T00:15:19.149Z,0.00
2019-04-07T00:16:19.110Z,0.00
2019-04-07T00:17:19.257Z,0.00
2019-04-07T00:18:19.187Z,0.00
2019-04-07T00:19:19.922Z,0.00
2019-04-07T00:20:19.868Z,0.00
2019-04-07T00:21:19.082Z,0.00
2019-04-07T00:22:19.044Z,0.00
2019-04-07T00:23:19.046Z,0.00
2019-04-07T00:24:19.290Z,0.00
2019-04-07T00:25:19.316Z,0.00
2019-04-07T00:26:19.142Z,0.00
2019-04-07T00:27:19.990Z,0.00
2019-04-07T00:28:19.620Z,0.00
2019-04-07T00:29:19.557Z,0.00
2019-04-07T00:30:19.764Z,0.00
2019-04-07T00:31:19.408Z,0.00
2019-04-07T00:32:19.990Z,0.00
2019-04-07T00:33:19.172Z,0.00
2019-04-07T00:34:19.196Z,0.00
2019-04-07T00:35:26.532Z,0.00
2019-04-07T00:36:19.913Z,0.00
2019-04-07T00:37:18.888Z,0.00
2019-04-07T00:38:19.357Z,0.00
2019-04-07T00:39:19.098Z,0.00
2019-04-07T00:40:19.653Z,0.00
2019-04-07T00:41:18.841Z,0.00
2019-04-07T00:42:19.372Z,0.00
2019-04-07T00:43:18.839Z,0.00
2019-04-07T00:44:18.944Z,0.00
2019-04-07T00:45:19.118Z,0.00
2019-04-07T00:46:19.099Z,0.00
2019-04-07T00:47:18.780Z,0.00
2019-04-07T00:48:18.760Z,0.00
2019-04-07T00:49:19.240Z,0.00
2019-04-07T00:50:19.459Z,0.00
2019-04-07T00:51:18.817Z,0.00
2019-04-07T00:52:19.444Z,0.00
2019-04-07T00:53:18.990Z,0.00
2019-04-07T00:54:18.828Z,0.00
2019-04-07T00:55:18.810Z,0.00
2019-04-07T00:56:19.156Z,0.00
2019-04-07T00:57:18.699Z,0.00
2019-04-07T00:58:19.194Z,0.00
2019-04-07T00:59:18.648Z,0.00
2019-04-07T01:00:19.109Z,0.00
2019-04-07T01:01:18.639Z,0.00
2019-04-07T01:02:18.664Z,0.00
2019-04-07T01:03:19.477Z,0.00
2019-04-07T01:04:18.966Z,0.00
2019-04-07T01:05:18.964Z,0.00
2019-04-07T01:06:18.749Z,0.00
2019-04-07T01:07:19.177Z,0.00
2019-04-07T01:08:18.557Z,0.00
2019-04-07T01:09:18.769Z,0.00
2019-04-07T01:10:19.019Z,0.00
2019-04-07T01:11:18.946Z,0.00
2019-04-07T01:12:18.508Z,0.00
2019-04-07T01:13:18.488Z,0.00
2019-04-07T01:14:18.485Z,0.00
2019-04-07T01:15:18.629Z,0.00
2019-04-07T01:16:18.468Z,0.00
2019-04-07T01:17:19.089Z,0.00
2019-04-07T01:18:18.438Z,0.00
2019-04-07T01:19:18.918Z,0.00
2019-04-07T01:20:18.417Z,0.00
2019-04-07T01:21:19.173Z,0.00
2019-04-07T01:22:18.588Z,0.00
2019-04-07T01:23:18.387Z,0.00
2019-04-07T01:24:18.771Z,0.00
2019-04-07T01:25:18.377Z,0.00
2019-04-07T01:26:18.561Z,0.00
2019-04-07T01:27:18.378Z,0.00
2019-04-07T01:28:18.328Z,0.00
2019-04-07T01:29:18.490Z,0.00
2019-04-07T01:30:18.387Z,0.00
2019-04-07T01:31:18.778Z,0.00
2019-04-07T01:32:18.289Z,0.00
2019-04-07T01:33:18.306Z,0.00
2019-04-07T01:34:18.481Z,0.00
2019-04-07T01:35:18.255Z,0.00
2019-04-07T01:36:18.344Z,0.00
2019-04-07T01:37:18.709Z,0.00
2019-04-07T01:38:18.226Z,0.00
2019-04-07T01:39:18.351Z,0.00
2019-04-07T01:40:18.429Z,0.00
2019-04-07T01:41:18.614Z,0.00
2019-04-07T01:42:18.176Z,0.00
2019-04-07T01:43:18.166Z,0.00
2019-04-07T01:44:18.928Z,0.00
2019-04-07T01:45:18.185Z,0.00
2019-04-07T01:46:18.394Z,0.00
2019-04-07T01:47:18.126Z,0.00
2019-04-07T01:48:18.120Z,0.00
2019-04-07T01:49:18.409Z,0.00
2019-04-07T01:50:18.589Z,0.00
2019-04-07T01:51:18.816Z,0.00
2019-04-07T01:52:18.305Z,0.00
2019-04-07T01:53:18.064Z,0.00
2019-04-07T01:54:18.053Z,0.00
2019-04-07T01:55:18.120Z,0.00
2019-04-07T01:56:18.333Z,0.00
2019-04-07T01:57:18.455Z,0.00
2019-04-07T01:58:18.533Z,0.00
2019-04-07T01:59:18.002Z,0.00
2019-04-07T02:01:49.732Z,0.00
2019-04-07T02:02:49.725Z,0.00
2019-04-07T02:03:51.135Z,0.00
2019-04-07T02:04:50.083Z,0.00
2019-04-07T02:05:58.641Z,0.00
2019-04-07T02:06:50.624Z,0.00
2019-04-07T02:07:50.064Z,0.00
2019-04-07T02:08:49.635Z,0.00
2019-04-07T02:09:49.595Z,0.00
2019-04-07T02:10:49.631Z,0.00
2019-04-07T02:11:49.573Z,0.00
2019-04-07T02:12:49.891Z,0.00
2019-04-07T02:13:49.553Z,0.00
2019-04-07T02:14:49.931Z,0.00
2019-04-07T02:15:49.884Z,0.00
2019-04-07T02:16:49.990Z,0.00
2019-04-07T02:17:49.543Z,0.00
2019-04-07T02:18:49.606Z,0.00
2019-04-07T02:19:49.926Z,0.00
2019-04-07T02:20:49.927Z,0.00
2019-04-07T02:21:49.502Z,0.00
2019-04-07T02:22:49.829Z,0.00
2019-04-07T02:23:49.464Z,0.00
2019-04-07T02:24:49.886Z,0.00
2019-04-07T02:25:49.443Z,0.00
2019-04-07T02:26:49.749Z,0.00
2019-04-07T02:27:49.568Z,0.00
2019-04-07T02:28:49.564Z,0.00
2019-04-07T02:29:50.057Z,0.00
2019-04-07T02:30:49.408Z,0.00
2019-04-07T02:31:50.029Z,0.00
2019-04-07T02:32:49.987Z,0.00
2019-04-07T02:33:49.950Z,0.00
2019-04-07T02:34:49.342Z,0.00
2019-04-07T02:35:50.372Z,0.00
2019-04-07T02:36:49.940Z,0.00
2019-04-07T02:37:49.982Z,0.00
2019-04-07T02:38:50.011Z,0.00
2019-04-07T02:39:49.288Z,0.00
2019-04-07T02:40:49.270Z,0.00
2019-04-07T02:41:49.261Z,0.00
2019-04-07T02:42:50.126Z,0.00
2019-04-07T02:43:49.537Z,0.00
2019-04-07T02:44:49.414Z,0.00
2019-04-07T02:45:49.373Z,0.00
2019-04-07T02:46:49.219Z,0.00
2019-04-07T02:47:49.963Z,0.00
2019-04-07T02:48:49.190Z,0.00
2019-04-07T02:49:50.049Z,0.00
2019-04-07T02:50:49.231Z,0.00
2019-04-07T02:51:49.796Z,0.00
2019-04-07T02:52:49.217Z,0.00
2019-04-07T02:53:49.193Z,0.00
2019-04-07T02:54:49.684Z,0.00
2019-04-07T02:55:49.126Z,0.00
2019-04-07T02:56:49.415Z,0.00
2019-04-07T02:57:49.112Z,0.00
2019-04-07T02:58:49.759Z,0.00
2019-04-07T02:59:49.098Z,0.00
2019-04-07T03:00:50.483Z,0.00
2019-04-07T03:01:49.713Z,0.00
2019-04-07T03:02:49.688Z,0.00
2019-04-07T03:03:50.285Z,0.00
2019-04-07T03:04:49.024Z,0.00
2019-04-07T03:05:49.637Z,0.00
2019-04-07T03:06:52.877Z,0.00
2019-04-07T03:07:49.009Z,0.00
2019-04-07T03:08:49.240Z,0.00
2019-04-07T03:09:50.341Z,0.00
2019-04-07T03:10:49.274Z,0.00
2019-04-07T03:11:49.079Z,0.00
2019-04-07T03:12:48.938Z,0.00
2019-04-07T03:13:49.132Z,0.00
2019-04-07T03:14:49.404Z,0.00
2019-04-07T03:15:48.907Z,0.00
2019-04-07T03:16:49.555Z,0.00
2019-04-07T03:17:49.668Z,0.00
2019-04-07T03:18:48.880Z,0.00
2019-04-07T03:19:48.866Z,0.00
2019-04-07T03:20:49.536Z,0.00
2019-04-07T03:21:48.854Z,0.00
2019-04-07T03:22:48.832Z,0.00
2019-04-07T03:23:49.865Z,0.00
2019-04-07T03:24:49.662Z,0.00
2019-04-07T03:25:48.803Z,0.00
2019-04-07T03:26:49.099Z,0.00
2019-04-07T03:27:48.784Z,0.00
2019-04-07T03:28:49.386Z,0.00
2019-04-07T03:29:49.411Z,0.00
2019-04-07T03:30:51.112Z,0.00
2019-04-07T03:31:51.015Z,0.00
2019-04-07T03:32:50.990Z,0.00
2019-04-07T03:33:49.869Z,0.00
2019-04-07T03:34:49.575Z,0.00
2019-04-07T03:35:52.931Z,0.00
2019-04-07T03:37:15.210Z,0.00
2019-04-07T03:37:50.402Z,0.00
2019-04-07T03:38:48.690Z,0.00
2019-04-07T03:39:49.284Z,0.00
2019-04-07T03:40:49.627Z,0.00
2019-04-07T03:41:49.241Z,0.00
2019-04-07T03:42:48.627Z,0.00
2019-04-07T03:43:49.504Z,0.00
2019-04-07T03:44:49.029Z,0.00
2019-04-07T03:45:48.604Z,0.00
2019-04-07T03:46:49.345Z,0.00
2019-04-07T03:47:48.573Z,0.00
2019-04-07T03:48:48.573Z,0.00
2019-04-07T03:49:49.608Z,0.00
2019-04-07T03:50:48.695Z,0.00
2019-04-07T03:51:49.547Z,0.00
2019-04-07T03:52:48.989Z,0.00
2019-04-07T03:53:48.841Z,0.00
2019-04-07T03:54:48.806Z,0.00
2019-04-07T03:55:49.466Z,0.00
2019-04-07T03:56:48.500Z,0.00
2019-04-07T03:57:49.273Z,0.00
2019-04-07T03:58:49.356Z,0.00
2019-04-07T03:59:48.955Z,0.00
2019-04-07T04:00:48.442Z,0.00
2019-04-07T04:01:49.672Z,0.00
2019-04-07T04:02:48.458Z,0.00
2019-04-07T04:03:48.410Z,0.00
2019-04-07T04:04:48.962Z,0.00
2019-04-07T04:05:52.104Z,0.00
2019-04-07T04:06:49.488Z,0.00
2019-04-07T04:07:49.403Z,0.00
2019-04-07T04:08:48.981Z,0.00
2019-04-07T04:09:48.367Z,0.00
2019-04-07T04:10:48.491Z,0.00
2019-04-07T04:11:48.908Z,0.00
2019-04-07T04:12:49.717Z,0.00
2019-04-07T04:13:48.350Z,0.00
2019-04-07T04:14:48.311Z,0.00
2019-04-07T04:15:48.571Z,0.00
2019-04-07T04:16:49.099Z,0.00
2019-04-07T04:17:48.263Z,0.00
2019-04-07T04:18:48.322Z,0.00
2019-04-07T04:19:48.300Z,0.00
2019-04-07T04:20:48.625Z,0.00
2019-04-07T04:21:48.219Z,0.00
2019-04-07T04:22:48.616Z,0.00
2019-04-07T04:23:48.289Z,0.00
2019-04-07T04:24:48.743Z,0.00
2019-04-07T04:25:49.860Z,0.00
2019-04-07T04:26:48.173Z,0.00
2019-04-07T04:27:48.631Z,0.00
2019-04-07T04:28:48.795Z,0.00
2019-04-07T04:29:51.769Z,0.00
2019-04-07T04:30:48.451Z,0.00
2019-04-07T04:31:49.040Z,0.00
2019-04-07T04:32:48.107Z,0.00
2019-04-07T04:33:48.551Z,0.00
2019-04-07T04:34:48.087Z,0.00
2019-04-07T04:35:48.133Z,0.00
2019-04-07T04:36:48.369Z,0.00
2019-04-07T04:37:51.639Z,0.00
2019-04-07T04:38:49.054Z,0.00
2019-04-07T04:39:48.043Z,0.00
2019-04-07T04:40:48.057Z,0.00
2019-04-07T04:41:49.005Z,0.00
2019-04-07T04:42:48.552Z,0.00
2019-04-07T04:43:49.154Z,0.00
2019-04-07T04:44:47.977Z,0.00
2019-04-07T04:45:48.412Z,0.00
2019-04-07T04:46:48.624Z,0.00
2019-04-07T04:47:48.238Z,0.00
2019-04-07T04:48:47.936Z,0.00
2019-04-07T04:49:48.344Z,0.00
2019-04-07T04:50:47.916Z,0.00
2019-04-07T04:51:48.582Z,5.62
2019-04-07T04:52:48.732Z,5.62
2019-04-07T04:53:47.896Z,5.62
2019-04-07T04:54:47.889Z,5.62
2019-04-07T04:55:48.270Z,5.62
2019-04-07T04:56:47.859Z,5.62
2019-04-07T04:57:48.591Z,5.62
2019-04-07T04:58:47.898Z,5.62
2019-04-07T04:59:48.524Z,5.62
2019-04-07T05:00:48.463Z,5.62
2019-04-07T05:01:47.899Z,5.62
2019-04-07T05:02:48.076Z,11.25
2019-04-07T05:03:47.785Z,11.25
2019-04-07T05:04:47.775Z,11.25
2019-04-07T05:05:47.807Z,11.25
2019-04-07T05:06:47.892Z,11.25
2019-04-07T05:07:57.148Z,11.25
2019-04-07T05:08:48.724Z,11.25
2019-04-07T05:09:53.048Z,11.25
2019-04-07T05:10:48.713Z,11.25
2019-04-07T05:11:48.475Z,16.88
2019-04-07T05:12:48.248Z,16.88
2019-04-07T05:13:48.088Z,16.88
2019-04-07T05:14:48.050Z,16.88
2019-04-07T05:15:47.855Z,16.88
2019-04-07T05:16:48.103Z,16.88
2019-04-07T05:17:47.635Z,16.88
2019-04-07T05:18:48.167Z,16.88
2019-04-07T05:19:47.632Z,16.88
2019-04-07T05:20:47.716Z,22.50
2019-04-07T05:21:47.592Z,22.50
2019-04-07T05:22:47.862Z,22.50
2019-04-07T05:23:48.045Z,22.50
2019-04-07T05:24:47.633Z,22.50
2019-04-07T05:25:48.127Z,22.50
2019-04-07T05:26:47.752Z,22.50
2019-04-07T05:27:48.254Z,22.50
2019-04-07T05:28:48.254Z,28.12
2019-04-07T05:29:47.853Z,28.12
2019-04-07T05:30:48.052Z,28.12
2019-04-07T05:31:47.531Z,28.12
2019-04-07T05:32:47.842Z,28.12
2019-04-07T05:33:47.463Z,28.12
2019-04-07T05:34:47.733Z,28.12
2019-04-07T05:35:47.442Z,28.12
2019-04-07T05:36:47.838Z,28.12
2019-04-07T05:37:59.118Z,33.75
2019-04-07T05:38:48.408Z,33.75
2019-04-07T05:39:47.398Z,33.75
2019-04-07T05:40:47.552Z,33.75
2019-04-07T05:41:48.114Z,33.75
2019-04-07T05:42:47.537Z,33.75
2019-04-07T05:43:48.090Z,33.75
2019-04-07T05:44:47.625Z,39.38
2019-04-07T05:45:47.329Z,39.38
2019-04-07T05:46:49.583Z,39.38
2019-04-07T05:47:48.751Z,39.38
2019-04-07T05:48:50.516Z,39.38
2019-04-07T05:49:47.715Z,39.38
2019-04-07T05:50:47.345Z,45.00
2019-04-07T05:51:47.269Z,45.00
2019-04-07T05:52:47.700Z,45.00
2019-04-07T05:53:48.380Z,45.00
2019-04-07T05:54:49.942Z,45.00
2019-04-07T05:55:47.552Z,45.00
2019-04-07T05:56:47.218Z,50.62
2019-04-07T05:57:47.349Z,50.62
2019-04-07T05:58:47.261Z,50.62
2019-04-07T05:59:48.738Z,50.62
2019-04-07T06:00:48.710Z,50.62
2019-04-07T06:01:49.871Z,56.25
2019-04-07T06:02:48.203Z,56.25
2019-04-07T06:03:47.890Z,56.25
2019-04-07T06:04:48.425Z,56.25
2019-04-07T06:05:48.248Z,56.25
2019-04-07T06:06:50.545Z,61.88
2019-04-07T06:07:47.868Z,61.88
2019-04-07T06:08:48.524Z,61.88
2019-04-07T06:09:50.093Z,61.88
2019-04-07T06:10:47.076Z,61.88
2019-04-07T06:11:47.617Z,61.88
2019-04-07T06:12:48.254Z,61.88
2019-04-07T06:13:47.503Z,67.50
2019-04-07T06:14:47.684Z,67.50
2019-04-07T06:15:49.351Z,67.50
2019-04-07T06:16:47.055Z,67.50
2019-04-07T06:17:46.996Z,67.50
2019-04-07T06:18:47.700Z,67.50
2019-04-07T06:19:47.335Z,67.50
2019-04-07T06:20:47.656Z,67.50
2019-04-07T06:21:48.826Z,73.12
2019-04-07T06:22:52.139Z,73.12
2019-04-07T06:23:48.592Z,73.12
2019-04-07T06:24:47.121Z,73.12
2019-04-07T06:25:46.973Z,78.75
2019-04-07T06:26:49.686Z,78.75
2019-04-07T06:27:46.893Z,78.75
2019-04-07T06:28:51.520Z,84.38
2019-04-07T06:29:47.990Z,84.38
2019-04-07T06:30:47.449Z,90.00
2019-04-07T06:31:47.112Z,101.25
2019-04-07T06:32:47.274Z,101.25
2019-04-07T06:33:47.117Z,101.25
2019-04-07T06:34:49.023Z,101.25
2019-04-07T06:35:47.651Z,106.88
2019-04-07T06:36:51.774Z,106.88
2019-04-07T06:37:47.822Z,112.50
2019-04-07T06:38:51.443Z,112.50
2019-04-07T06:39:50.799Z,118.12
2019-04-07T06:40:46.798Z,118.12
2019-04-07T06:41:46.754Z,118.12
2019-04-07T06:42:46.735Z,118.12
2019-04-07T06:43:46.807Z,118.12
2019-04-07T06:44:50.057Z,123.75
2019-04-07T06:45:47.488Z,123.75
2019-04-07T06:46:46.961Z,123.75
2019-04-07T06:47:46.701Z,129.38
2019-04-07T06:48:47.122Z,129.38
2019-04-07T06:49:47.458Z,129.38
2019-04-07T06:50:50.879Z,129.38
2019-04-07T06:51:47.868Z,129.38
2019-04-07T06:52:47.652Z,135.00
2019-04-07T06:53:48.879Z,135.00
2019-04-07T06:54:47.056Z,135.00
2019-04-07T06:55:46.642Z,140.62
2019-04-07T06:56:46.657Z,140.62
2019-04-07T06:57:46.675Z,151.88
2019-04-07T06:58:46.574Z,146.25
2019-04-07T06:59:49.075Z,146.25
2019-04-07T07:00:46.592Z,146.25
2019-04-07T07:01:47.609Z,151.88
2019-04-07T07:02:46.533Z,151.88
2019-04-07T07:03:46.511Z,151.88
2019-04-07T07:04:46.823Z,157.50
2019-04-07T07:05:46.982Z,157.50
2019-04-07T07:06:48.285Z,157.50
2019-04-07T07:07:48.259Z,163.12
2019-04-07T07:08:47.539Z,163.12
2019-04-07T07:09:47.066Z,163.12
2019-04-07T07:10:46.775Z,168.75
2019-04-07T07:11:46.726Z,168.75
2019-04-07T07:12:47.001Z,168.75
2019-04-07T07:13:46.510Z,174.38
2019-04-07T07:14:47.346Z,174.38
2019-04-07T07:15:47.155Z,174.38
2019-04-07T07:16:46.922Z,174.38
2019-04-07T07:17:48.636Z,180.00
2019-04-07T07:18:47.090Z,180.00
2019-04-07T07:19:46.406Z,180.00
2019-04-07T07:20:46.348Z,185.62
2019-04-07T07:21:46.794Z,185.62
2019-04-07T07:22:47.877Z,185.62
2019-04-07T07:23:48.936Z,185.62
2019-04-07T07:24:47.273Z,185.62
2019-04-07T07:25:47.586Z,185.62
2019-04-07T07:26:46.288Z,191.25
2019-04-07T07:27:46.790Z,191.25
2019-04-07T07:28:46.989Z,191.25
2019-04-07T07:29:47.587Z,191.25
2019-04-07T07:30:50.403Z,196.88
2019-04-07T07:31:46.357Z,196.88
2019-04-07T07:32:46.426Z,196.88
2019-04-07T07:33:46.199Z,202.50
2019-04-07T07:34:46.681Z,202.50
2019-04-07T07:35:49.101Z,208.12
2019-04-07T07:36:46.710Z,208.12
2019-04-07T07:37:46.653Z,208.12
2019-04-07T07:38:57.237Z,208.12
2019-04-07T07:39:47.334Z,213.75
2019-04-07T07:40:47.778Z,213.75
2019-04-07T07:41:46.383Z,230.62
2019-04-07T07:42:48.700Z,219.38
2019-04-07T07:43:46.125Z,219.38
2019-04-07T07:44:48.329Z,225.00
2019-04-07T07:45:48.618Z,225.00
2019-04-07T07:46:49.167Z,230.62
2019-04-07T07:47:46.535Z,236.25
2019-04-07T07:48:46.799Z,241.88
2019-04-07T07:49:46.081Z,241.88
2019-04-07T07:50:46.030Z,253.12
2019-04-07T07:51:48.566Z,258.75
2019-04-07T07:52:49.217Z,264.38
2019-04-07T07:53:47.232Z,258.75
2019-04-07T07:54:46.351Z,264.38
2019-04-07T07:55:46.691Z,270.00
2019-04-07T07:56:49.378Z,275.62
2019-04-07T07:57:45.954Z,281.25
2019-04-07T07:58:46.061Z,281.25
2019-04-07T07:59:46.395Z,286.88
2019-04-07T08:00:46.097Z,292.50
2019-04-07T08:01:47.066Z,292.50
2019-04-07T08:02:49.076Z,292.50
2019-04-07T08:03:45.944Z,298.12
2019-04-07T08:04:45.972Z,303.75
2019-04-07T08:05:46.556Z,309.38
2019-04-07T08:06:46.257Z,309.38
2019-04-07T08:07:48.993Z,320.62
2019-04-07T08:08:47.561Z,326.25
2019-04-07T08:09:48.053Z,354.38
2019-04-07T08:10:46.278Z,450.00
2019-04-07T08:11:45.847Z,556.88
2019-04-07T08:12:49.182Z,613.12
2019-04-07T08:13:47.137Z,691.88
2019-04-07T08:14:49.754Z,832.50
2019-04-07T08:15:46.960Z,821.25
2019-04-07T08:16:45.758Z,703.12
2019-04-07T08:17:46.349Z,585.00
2019-04-07T08:18:46.697Z,511.88
2019-04-07T08:19:46.638Z,472.50
2019-04-07T08:20:45.994Z,450.00
2019-04-07T08:21:50.090Z,438.75
2019-04-07T08:22:47.086Z,427.50
2019-04-07T08:23:45.678Z,427.50
2019-04-07T08:24:49.564Z,427.50
2019-04-07T08:25:47.113Z,421.88
2019-04-07T08:26:45.934Z,421.88
2019-04-07T08:27:45.639Z,421.88
2019-04-07T08:28:45.619Z,421.88
2019-04-07T08:29:46.227Z,427.50
2019-04-07T08:30:47.494Z,427.50
2019-04-07T08:31:46.960Z,421.88
2019-04-07T08:32:45.588Z,433.12
2019-04-07T08:33:46.402Z,444.38
2019-04-07T08:34:45.944Z,540.00
2019-04-07T08:35:45.549Z,675.00
2019-04-07T08:36:47.069Z,748.12
2019-04-07T08:37:47.110Z,793.12
2019-04-07T08:38:45.607Z,843.75
2019-04-07T08:39:45.508Z,855.00
2019-04-07T08:40:45.626Z,843.75
2019-04-07T08:41:45.894Z,866.25
2019-04-07T08:42:48.277Z,871.88
2019-04-07T08:43:46.519Z,894.38
2019-04-07T08:44:46.252Z,866.25
2019-04-07T08:45:46.030Z,860.62
2019-04-07T08:46:45.804Z,860.62
2019-04-07T08:47:48.033Z,905.62
2019-04-07T08:48:49.713Z,939.38
2019-04-07T08:49:47.086Z,933.75
2019-04-07T08:50:46.359Z,945.00
2019-04-07T08:51:45.998Z,956.25
2019-04-07T08:52:45.623Z,961.88
2019-04-07T08:53:46.084Z,961.88
2019-04-07T08:54:48.878Z,973.12
2019-04-07T08:55:48.732Z,950.62
2019-04-07T08:56:45.928Z,967.50
2019-04-07T08:57:45.771Z,1006.88
2019-04-07T08:58:45.754Z,1018.12
2019-04-07T08:59:45.336Z,1046.25
2019-04-07T09:00:48.207Z,1063.12
2019-04-07T09:01:45.310Z,1046.25
2019-04-07T09:02:46.493Z,1012.50
2019-04-07T09:03:45.760Z,1051.88
2019-04-07T09:04:49.778Z,1035.00
2019-04-07T09:05:45.527Z,1046.25
2019-04-07T09:06:45.228Z,1068.75
2019-04-07T09:07:47.136Z,1080.00
2019-04-07T09:08:45.205Z,1091.25
2019-04-07T09:09:47.829Z,1096.88
2019-04-07T09:10:45.198Z,1113.75
2019-04-07T09:11:45.964Z,1091.25
2019-04-07T09:12:45.175Z,1068.75
2019-04-07T09:13:45.195Z,1035.00
2019-04-07T09:14:45.641Z,1001.25
2019-04-07T09:15:48.485Z,984.38
2019-04-07T09:16:47.547Z,984.38
2019-04-07T09:17:47.388Z,911.25
2019-04-07T09:18:52.831Z,691.88
2019-04-07T09:19:46.889Z,421.88
2019-04-07T09:20:48.456Z,270.00
2019-04-07T09:21:49.600Z,270.00
2019-04-07T09:22:47.464Z,270.00
2019-04-07T09:23:45.774Z,270.00
2019-04-07T09:24:45.104Z,264.38
2019-04-07T09:25:46.578Z,270.00
2019-04-07T09:26:45.643Z,270.00
2019-04-07T09:27:48.021Z,270.00
2019-04-07T09:28:45.401Z,270.00
2019-04-07T09:29:45.301Z,270.00
2019-04-07T09:30:45.764Z,270.00
2019-04-07T09:31:45.094Z,270.00
2019-04-07T09:32:45.011Z,270.00
2019-04-07T09:33:48.106Z,270.00
2019-04-07T09:34:48.159Z,270.00
2019-04-07T09:35:46.119Z,270.00
2019-04-07T09:36:47.893Z,270.00
2019-04-07T09:37:47.035Z,270.00
2019-04-07T09:38:45.931Z,270.00
2019-04-07T09:39:57.842Z,275.62
2019-04-07T09:40:48.227Z,275.62
2019-04-07T09:41:45.524Z,275.62
2019-04-07T09:42:44.929Z,275.62
2019-04-07T09:43:45.056Z,275.62
2019-04-07T09:44:45.306Z,275.62
2019-04-07T09:45:44.824Z,275.62
2019-04-07T09:46:48.364Z,275.62
2019-04-07T09:47:47.775Z,281.25
2019-04-07T09:48:48.827Z,281.25
2019-04-07T09:49:48.500Z,281.25
2019-04-07T09:50:44.938Z,281.25
2019-04-07T09:51:44.960Z,281.25
2019-04-07T09:52:45.858Z,281.25
2019-04-07T09:53:44.883Z,281.25
2019-04-07T09:54:44.755Z,281.25
2019-04-07T09:55:46.403Z,281.25
2019-04-07T09:56:45.114Z,281.25
2019-04-07T09:57:45.084Z,281.25
2019-04-07T09:58:45.519Z,286.88
2019-04-07T09:59:46.676Z,286.88
2019-04-07T10:00:46.503Z,286.88
2019-04-07T10:01:45.821Z,286.88
2019-04-07T10:02:45.927Z,286.88
2019-04-07T10:03:44.717Z,286.88
2019-04-07T10:04:44.779Z,286.88
2019-04-07T10:05:44.665Z,292.50
2019-04-07T10:06:45.106Z,292.50
2019-04-07T10:07:45.087Z,292.50
2019-04-07T10:08:45.528Z,298.12
2019-04-07T10:09:46.205Z,303.75
2019-04-07T10:10:44.891Z,309.38
2019-04-07T10:11:44.615Z,360.00
2019-04-07T10:12:45.926Z,703.12
2019-04-07T10:13:46.340Z,1164.38
2019-04-07T10:14:45.277Z,1350.00
2019-04-07T10:15:45.773Z,1321.88
2019-04-07T10:16:45.741Z,1316.25
2019-04-07T10:17:47.086Z,1366.88
2019-04-07T10:18:45.882Z,1395.00
2019-04-07T10:19:44.696Z,1395.00
2019-04-07T10:20:44.546Z,1389.38
2019-04-07T10:21:45.223Z,1451.25
2019-04-07T10:22:44.485Z,1485.00
2019-04-07T10:23:44.588Z,1440.00
2019-04-07T10:24:44.933Z,1400.62
2019-04-07T10:25:45.543Z,1423.12
2019-04-07T10:26:45.106Z,1546.88
2019-04-07T10:27:45.140Z,1575.00
2019-04-07T10:28:46.160Z,1485.00
2019-04-07T10:29:45.296Z,1423.12
2019-04-07T10:30:45.826Z,1411.88
2019-04-07T10:31:45.264Z,1496.25
2019-04-07T10:32:45.326Z,1518.75
2019-04-07T10:33:44.392Z,1479.38
2019-04-07T10:34:44.962Z,1485.00
2019-04-07T10:35:44.505Z,1518.75
2019-04-07T10:36:45.491Z,1586.25
2019-04-07T10:37:44.954Z,1625.62
2019-04-07T10:38:45.117Z,1636.88
2019-04-07T10:39:44.285Z,1546.88
2019-04-07T10:40:44.278Z,1473.75
2019-04-07T10:41:45.211Z,1501.88
2019-04-07T10:42:45.910Z,1575.00
2019-04-07T10:43:45.212Z,1575.00
2019-04-07T10:44:44.472Z,1552.50
2019-04-07T10:45:44.999Z,1580.62
2019-04-07T10:46:45.020Z,1614.38
2019-04-07T10:47:44.826Z,1642.50
2019-04-07T10:48:45.684Z,1580.62
2019-04-07T10:49:44.327Z,1541.25
2019-04-07T10:50:44.590Z,1603.12
2019-04-07T10:51:45.949Z,1648.12
2019-04-07T10:52:44.368Z,1676.25
2019-04-07T10:53:44.965Z,1648.12
2019-04-07T10:54:45.094Z,1620.00
2019-04-07T10:55:45.229Z,1558.12
2019-04-07T10:56:45.060Z,1603.12
2019-04-07T10:57:45.884Z,1580.62
2019-04-07T10:58:47.206Z,1620.00
2019-04-07T10:59:45.560Z,1726.88
2019-04-07T11:00:49.410Z,1698.75
2019-04-07T11:01:46.916Z,1687.50
2019-04-07T11:02:46.444Z,1659.38
2019-04-07T11:03:45.347Z,1653.75
2019-04-07T11:04:46.028Z,1665.00
2019-04-07T11:05:44.783Z,1603.12
2019-04-07T11:06:45.021Z,1659.38
2019-04-07T11:07:45.821Z,1608.75
2019-04-07T11:08:44.243Z,1535.62
2019-04-07T11:09:45.910Z,1687.50
2019-04-07T11:10:45.285Z,1755.00
2019-04-07T11:11:46.679Z,1743.75
2019-04-07T11:12:45.800Z,1732.50
2019-04-07T11:13:45.765Z,1687.50
2019-04-07T11:14:44.490Z,1653.75
2019-04-07T11:15:44.911Z,1715.62
2019-04-07T11:16:45.290Z,1794.38
2019-04-07T11:17:44.053Z,1788.75
2019-04-07T11:18:44.055Z,1726.88
2019-04-07T11:19:44.524Z,1665.00
2019-04-07T11:20:44.461Z,1642.50
2019-04-07T11:21:44.611Z,1608.75
2019-04-07T11:22:44.168Z,1575.00
2019-04-07T11:23:45.139Z,1636.88
2019-04-07T11:24:43.848Z,1704.38
2019-04-07T11:25:43.975Z,1726.88
2019-04-07T11:26:43.812Z,1726.88
2019-04-07T11:27:44.195Z,1715.62
2019-04-07T11:28:44.505Z,1670.62
2019-04-07T11:29:43.987Z,1620.00
2019-04-07T11:30:45.435Z,1636.88
2019-04-07T11:31:45.473Z,1687.50
2019-04-07T11:32:46.152Z,1732.50
2019-04-07T11:33:45.895Z,1710.00
2019-04-07T11:34:45.428Z,1676.25
2019-04-07T11:35:45.602Z,1715.62
2019-04-07T11:36:45.326Z,1715.62
2019-04-07T11:37:44.160Z,1721.25
2019-04-07T11:38:45.501Z,1693.12
2019-04-07T11:39:46.247Z,1659.38
2019-04-07T11:40:50.003Z,1648.12
2019-04-07T11:41:46.030Z,1726.88
2019-04-07T11:42:46.055Z,1777.50
2019-04-07T11:43:46.850Z,1805.62
2019-04-07T11:44:43.673Z,1749.38
2019-04-07T11:45:56.314Z,1783.12
2019-04-07T11:46:45.339Z,1743.75
2019-04-07T11:47:43.688Z,1760.62
2019-04-07T11:48:43.605Z,1738.12
2019-04-07T11:49:44.718Z,1788.75
2019-04-07T11:50:43.907Z,1822.50
2019-04-07T11:51:46.737Z,1878.75
2019-04-07T11:52:44.686Z,1856.25
2019-04-07T11:53:45.965Z,1861.88
2019-04-07T11:54:44.351Z,1805.62
2019-04-07T11:55:44.293Z,1777.50
2019-04-07T11:56:45.941Z,1726.88
2019-04-07T11:57:45.272Z,1687.50
2019-04-07T11:58:45.246Z,1732.50
2019-04-07T11:59:45.816Z,1800.00
2019-04-07T12:00:47.368Z,1805.62
2019-04-07T12:01:51.023Z,1760.62
2019-04-07T12:05:09.858Z,1811.25
2019-04-07T12:05:38.610Z,1788.75
2019-04-07T12:06:30.653Z,1794.38
2019-04-07T12:07:25.037Z,1794.38
2019-04-07T12:08:24.553Z,1777.50
2019-04-07T12:09:24.283Z,1794.38
2019-04-07T12:11:34.574Z,1805.62
2019-04-07T12:12:34.388Z,1811.25
2019-04-07T12:13:33.774Z,1760.62
2019-04-07T12:14:33.863Z,1743.75
2019-04-07T12:15:34.748Z,1805.62
2019-04-07T12:16:34.993Z,1828.12
2019-04-07T12:17:33.973Z,1771.88
2019-04-07T12:18:34.143Z,1805.62
2019-04-07T12:19:34.632Z,1726.88
2019-04-07T12:20:34.112Z,1755.00
2019-04-07T12:21:36.951Z,1710.00
2019-04-07T12:22:32.828Z,1608.75
2019-04-07T12:23:34.248Z,1620.00
2019-04-07T12:24:35.138Z,1710.00
2019-04-07T12:25:35.268Z,1648.12
2019-04-07T12:26:38.009Z,1726.88
2019-04-07T12:27:34.620Z,1620.00
2019-04-07T12:28:34.418Z,1597.50
2019-04-07T12:29:34.289Z,1614.38
2019-04-07T12:30:33.789Z,1563.75
2019-04-07T12:31:33.662Z,1642.50
2019-04-07T12:32:34.225Z,1597.50
2019-04-07T12:33:37.480Z,1597.50
2019-04-07T12:34:34.369Z,1648.12
2019-04-07T12:35:39.338Z,1608.75
2019-04-07T12:36:34.812Z,1597.50
2019-04-07T12:37:39.342Z,1530.00
2019-04-07T12:38:34.946Z,1485.00
2019-04-07T12:39:36.125Z,1496.25
2019-04-07T12:40:34.332Z,1518.75
2019-04-07T12:41:34.710Z,1479.38
2019-04-07T12:42:35.698Z,1501.88
2019-04-07T12:43:34.031Z,1546.88
2019-04-07T12:44:35.465Z,1490.62
2019-04-07T12:45:34.949Z,1485.00
2019-04-07T12:46:34.556Z,1445.62
2019-04-07T12:47:34.408Z,1423.12
2019-04-07T12:48:33.584Z,1395.00